Beckhamville, South Carolina
Current Conditions -  °F | °C
As of 5:35 AM on Saturday 25 Oct 2014 (Local Time) from KLKR Reporting Station
Heavy Rain Heavy Rain  
Wind Chill: 41°   Ceiling: Unl
Heat Index: 41°   Visibility: 5mi
Dew Point: 41°   Wind: 3mph
Humidity: 100%   Direction: 290°WNW
Pressure: 30.02"   Gusts: NA
Location:  34.5686°N, 80.9571°W
Report Text: KLKR 250935Z AUTO 29003KT 5SM +RA CLR 05/05 A3002 RMK AO2
Loading
Personal Weather Stations






























Interactive Weather Map
Tropical Storm Tracking
New forecast layout! Learn more

10-Day Weather Forecast

Advertisements
Track Severe Weather on mobile